Time;durP1;ratioP1;P1;durP2;ratioP2;P2;SDS_P1;SDS_P2;PMS_P1;PMS_P2;Temp;Humidity;BMP_temperature;BMP_pressure;BME280_temperature;BME280_humidity;BME280_pressure;Samples;Min_cycle;Max_cycle;Signal;HPM_P1;HPM_P2
2021/03/24 00:01:15;;;;;;;1.57;1.30;;;5.80;98.20;;;;;;5021598;28;20592;-78
2021/03/24 00:03:42;;;;;;;1.60;1.30;;;5.80;98.20;;;;;;5040812;28;20952;-77
2021/03/24 00:06:08;;;;;;;1.60;1.30;;;5.90;98.20;;;;;;5016051;28;20482;-77
2021/03/24 00:08:35;;;;;;;1.60;1.40;;;5.90;98.20;;;;;;5028577;28;20468;-77
2021/03/24 00:11:01;;;;;;;1.60;1.50;;;5.90;98.20;;;;;;5017474;28;20466;-77
2021/03/24 00:13:28;;;;;;;1.60;1.30;;;5.80;98.20;;;;;;5040290;28;20474;-77
2021/03/24 00:15:54;;;;;;;1.60;1.30;;;5.80;98.20;;;;;;5017311;28;20858;-77
2021/03/24 00:18:21;;;;;;;1.57;1.30;;;5.80;98.20;;;;;;5042143;28;20973;-77
2021/03/24 00:20:48;;;;;;;1.60;1.30;;;5.80;98.20;;;;;;5013928;28;20513;-77
2021/03/24 00:23:15;;;;;;;1.60;1.40;;;5.80;98.20;;;;;;5045091;28;20451;-77
2021/03/24 00:25:41;;;;;;;1.60;1.40;;;5.80;98.20;;;;;;5030677;28;20565;-77
2021/03/24 00:28:09;;;;;;;1.60;1.40;;;5.80;98.20;;;;;;5028001;28;20479;-77
2021/03/24 00:30:39;;;;;;;1.60;1.30;;;5.80;98.20;;;;;;5030634;28;20466;-77
2021/03/24 00:33:06;;;;;;;1.60;1.40;;;5.90;98.20;;;;;;5036024;28;20489;-77
2021/03/24 00:35:33;;;;;;;1.60;1.30;;;5.80;98.20;;;;;;5030574;28;20482;-77
2021/03/24 00:38:00;;;;;;;1.60;1.40;;;5.90;98.20;;;;;;5016296;28;20483;-77
2021/03/24 00:40:30;;;;;;;1.60;1.30;;;5.90;98.20;;;;;;5027421;28;20905;-76
2021/03/24 00:42:57;;;;;;;1.60;1.40;;;5.90;98.20;;;;;;5014059;28;20562;-77
2021/03/24 00:45:23;;;;;;;1.57;1.20;;;6.00;98.20;;;;;;5029337;28;20483;-77
2021/03/24 00:47:49;;;;;;;1.57;1.20;;;6.00;98.20;;;;;;5032477;28;20516;-77
2021/03/24 00:50:18;;;;;;;1.60;1.30;;;6.00;98.20;;;;;;5028814;28;20517;-77
2021/03/24 00:52:46;;;;;;;1.60;1.40;;;6.00;98.20;;;;;;5033929;28;20475;-77
2021/03/24 00:55:13;;;;;;;1.57;1.30;;;5.90;98.20;;;;;;5030831;28;20459;-77
2021/03/24 00:57:39;;;;;;;1.53;1.30;;;5.80;98.20;;;;;;5020875;28;21063;-77
2021/03/24 01:00:07;;;;;;;1.60;1.30;;;5.80;98.20;;;;;;5030313;28;20595;-77
2021/03/24 01:02:33;;;;;;;1.57;1.30;;;5.80;98.20;;;;;;5031200;28;20888;-77
2021/03/24 01:05:01;;;;;;;1.57;1.30;;;5.70;98.20;;;;;;5027057;28;20459;-77
2021/03/24 01:07:27;;;;;;;1.60;1.27;;;5.60;98.20;;;;;;5017360;28;20613;-77
2021/03/24 01:09:54;;;;;;;1.60;1.27;;;5.60;98.20;;;;;;5026802;28;20585;-77
2021/03/24 01:12:21;;;;;;;1.57;1.30;;;5.50;98.20;;;;;;5020800;28;20510;-77
2021/03/24 01:14:47;;;;;;;1.60;1.30;;;5.40;98.20;;;;;;5030541;28;20638;-77
2021/03/24 01:17:13;;;;;;;1.90;1.80;;;5.40;98.20;;;;;;5020370;28;20984;-77
2021/03/24 01:19:40;;;;;;;1.60;1.30;;;5.40;98.20;;;;;;5028644;28;20464;-77
2021/03/24 01:22:06;;;;;;;1.60;1.50;;;5.30;98.20;;;;;;5019865;28;20483;-77
2021/03/24 01:24:32;;;;;;;1.60;1.40;;;5.20;98.20;;;;;;5030348;28;20487;-76
2021/03/24 01:26:59;;;;;;;1.60;1.40;;;5.20;98.20;;;;;;5016798;28;20490;-77
2021/03/24 01:29:26;;;;;;;1.60;1.30;;;5.20;98.20;;;;;;5029426;28;20554;-76
2021/03/24 01:31:52;;;;;;;1.60;1.40;;;5.20;98.20;;;;;;5020313;28;20483;-77
2021/03/24 01:34:18;;;;;;;1.60;1.30;;;5.20;98.20;;;;;;5030502;28;20459;-77
2021/03/24 01:36:45;;;;;;;1.60;1.33;;;5.20;98.20;;;;;;5028486;28;20494;-77
2021/03/24 01:39:11;;;;;;;1.60;1.30;;;5.20;98.20;;;;;;5032778;28;20968;-77
2021/03/24 01:41:38;;;;;;;1.57;1.30;;;5.10;98.20;;;;;;5019860;28;20858;-77
2021/03/24 01:44:05;;;;;;;1.60;1.33;;;5.10;98.20;;;;;;5038171;28;20883;-77
2021/03/24 01:46:39;;;;;;;1.60;1.30;;;5.10;98.20;;;;;;5023275;28;20882;-77
2021/03/24 01:49:18;;;;;;;1.60;1.40;;;5.10;98.20;;;;;;5034472;28;20474;-77
2021/03/24 01:51:48;;;;;;;1.60;1.40;;;5.10;98.20;;;;;;5027885;28;20485;-77
2021/03/24 01:54:18;;;;;;;1.60;1.30;;;5.00;98.20;;;;;;5033697;28;20543;-77
2021/03/24 01:56:47;;;;;;;1.60;1.43;;;5.00;98.20;;;;;;5020051;28;20495;-77
2021/03/24 01:59:15;;;;;;;1.60;1.30;;;5.00;98.20;;;;;;5029803;28;20962;-77
2021/03/24 02:01:41;;;;;;;1.60;1.37;;;4.90;98.20;;;;;;5019716;28;20550;-78
2021/03/24 02:04:08;;;;;;;1.60;1.30;;;4.90;98.20;;;;;;5029713;28;20466;-77
2021/03/24 02:06:41;;;;;;;1.60;1.30;;;4.90;98.20;;;;;;5020256;28;20486;-76
2021/03/24 02:09:15;;;;;;;1.60;1.30;;;4.80;98.20;;;;;;5026062;28;20467;-76
2021/03/24 02:11:52;;;;;;;1.60;1.30;;;4.80;98.20;;;;;;5019972;28;20632;-77
2021/03/24 02:14:25;;;;;;;1.60;1.50;;;4.80;98.20;;;;;;5026756;28;20578;-77
2021/03/24 02:16:53;;;;;;;1.60;1.40;;;4.80;98.20;;;;;;5023932;28;20532;-76
2021/03/24 02:19:50;;;;;;;1.60;1.30;;;4.80;98.20;;;;;;5039082;28;20467;-77
2021/03/24 02:22:18;;;;;;;1.60;1.40;;;4.80;98.20;;;;;;5029153;28;20482;-77
2021/03/24 02:24:55;;;;;;;1.67;1.57;;;4.90;98.20;;;;;;5037114;28;20459;-77
2021/03/24 02:27:26;;;;;;;1.60;1.40;;;4.90;98.20;;;;;;5035058;28;20499;-77
2021/03/24 02:29:57;;;;;;;1.60;1.37;;;4.90;98.20;;;;;;5029534;28;20470;-76
2021/03/24 02:32:27;;;;;;;1.60;1.43;;;4.90;98.20;;;;;;5032300;28;20489;-77
2021/03/24 02:34:58;;;;;;;1.67;1.57;;;4.90;98.20;;;;;;5035306;28;20521;-77
2021/03/24 02:37:26;;;;;;;1.60;1.40;;;4.80;98.20;;;;;;5029610;28;20498;-77
2021/03/24 02:39:54;;;;;;;1.60;1.40;;;4.80;98.20;;;;;;5034440;28;20604;-77
2021/03/24 02:42:23;;;;;;;1.60;1.40;;;4.80;98.20;;;;;;5018224;28;20842;-77
2021/03/24 02:44:50;;;;;;;1.60;1.50;;;4.80;98.20;;;;;;5030297;28;20478;-77
2021/03/24 02:47:17;;;;;;;1.60;1.40;;;4.80;98.20;;;;;;5031266;28;21044;-77
2021/03/24 02:49:45;;;;;;;1.60;1.40;;;4.80;98.20;;;;;;5035779;28;20489;-77
2021/03/24 02:52:13;;;;;;;1.60;1.40;;;4.80;98.20;;;;;;5033712;28;20486;-77
2021/03/24 02:54:40;;;;;;;1.60;1.30;;;4.70;98.20;;;;;;5035915;28;20459;-76
2021/03/24 02:57:07;;;;;;;1.60;1.30;;;4.70;98.20;;;;;;5028785;28;20509;-76
2021/03/24 02:59:35;;;;;;;1.60;1.40;;;4.70;98.20;;;;;;5035116;28;20574;-75
2021/03/24 03:02:09;;;;;;;1.60;1.20;;;4.70;98.20;;;;;;5029377;28;20494;-76
2021/03/24 03:04:38;;;;;;;1.60;1.40;;;4.80;98.20;;;;;;5030645;28;20515;-73
2021/03/24 03:07:11;;;;;;;1.60;1.30;;;4.80;98.20;;;;;;5026018;28;20485;-73
2021/03/24 03:09:46;;;;;;;1.70;1.60;;;4.80;98.20;;;;;;5034783;28;20622;-74
2021/03/24 03:12:18;;;;;;;1.60;1.43;;;4.80;98.20;;;;;;5024306;28;20835;-76
2021/03/24 03:14:54;;;;;;;1.60;1.40;;;4.80;98.20;;;;;;5032303;28;20470;-75
2021/03/24 03:17:25;;;;;;;1.60;1.43;;;4.70;98.20;;;;;;5031783;28;20481;-75
2021/03/24 03:19:58;;;;;;;1.60;1.40;;;4.70;98.20;;;;;;5028873;28;20838;-76
2021/03/24 03:22:28;;;;;;;1.60;1.30;;;4.60;98.20;;;;;;5028747;28;20505;-76
2021/03/24 03:24:59;;;;;;;1.60;1.40;;;4.60;98.20;;;;;;5031851;28;20459;-75
2021/03/24 03:27:29;;;;;;;1.60;1.40;;;4.60;98.20;;;;;;5028467;28;20498;-74
2021/03/24 03:29:59;;;;;;;1.60;1.30;;;4.50;98.20;;;;;;5027813;28;20459;-75
2021/03/24 03:32:28;;;;;;;1.60;1.40;;;4.50;98.20;;;;;;5027812;28;20479;-75
2021/03/24 03:34:59;;;;;;;1.60;1.30;;;4.50;98.20;;;;;;5033444;28;20546;-75
2021/03/24 03:37:27;;;;;;;1.60;1.40;;;4.50;98.20;;;;;;5029458;28;21018;-76
2021/03/24 03:39:54;;;;;;;1.63;1.53;;;4.40;98.20;;;;;;5030094;28;20474;-75
2021/03/24 03:42:22;;;;;;;1.60;1.50;;;4.40;98.20;;;;;;5031406;28;21057;-76
2021/03/24 03:44:49;;;;;;;1.60;1.30;;;4.40;98.20;;;;;;5027621;28;20460;-74
2021/03/24 03:47:17;;;;;;;1.60;1.40;;;4.40;98.20;;;;;;5025403;28;20486;-75
2021/03/24 03:49:43;;;;;;;1.70;1.60;;;4.30;98.20;;;;;;5033651;28;20463;-76
2021/03/24 03:52:34;;;;;;;1.60;1.40;;;4.30;98.20;;;;;;5026472;28;20715;-74
2021/03/24 03:55:11;;;;;;;1.60;1.40;;;4.30;98.20;;;;;;5024879;28;20566;-75
2021/03/24 03:57:43;;;;;;;1.60;1.30;;;4.30;98.20;;;;;;5029562;28;20482;-74
2021/03/24 04:00:16;;;;;;;1.60;1.47;;;4.30;98.20;;;;;;5029435;28;20460;-75
2021/03/24 04:02:48;;;;;;;1.60;1.40;;;4.30;98.20;;;;;;5032799;28;20482;-73
2021/03/24 04:05:19;;;;;;;1.60;1.40;;;4.30;98.20;;;;;;5024893;28;20475;-76
2021/03/24 04:07:51;;;;;;;1.60;1.30;;;4.20;98.20;;;;;;5019705;28;20506;-75
2021/03/24 04:10:19;;;;;;;1.60;1.40;;;4.20;98.20;;;;;;5026935;28;20455;-75
2021/03/24 04:12:46;;;;;;;1.60;1.50;;;4.20;98.20;;;;;;5011899;28;20594;-75
2021/03/24 04:15:17;;;;;;;1.60;1.40;;;4.20;98.20;;;;;;5027795;28;20901;-76
2021/03/24 04:17:49;;;;;;;1.60;1.40;;;4.10;98.20;;;;;;5025948;28;20482;-75
2021/03/24 04:20:18;;;;;;;1.60;1.40;;;4.10;98.20;;;;;;5023156;28;20495;-73
2021/03/24 04:22:47;;;;;;;1.60;1.40;;;4.10;98.20;;;;;;5027820;28;20478;-75
2021/03/24 04:25:20;;;;;;;1.60;1.33;;;4.10;98.20;;;;;;5032990;28;20463;-74
2021/03/24 04:27:48;;;;;;;1.60;1.40;;;4.10;98.20;;;;;;5022232;28;20489;-76
2021/03/24 04:30:19;;;;;;;1.60;1.40;;;4.10;98.20;;;;;;5026698;28;21133;-77
2021/03/24 04:32:46;;;;;;;1.60;1.40;;;4.10;98.20;;;;;;5028187;28;20499;-77
2021/03/24 04:35:18;;;;;;;1.60;1.50;;;4.10;98.20;;;;;;5026978;28;20466;-77
2021/03/24 04:37:48;;;;;;;1.60;1.50;;;4.10;98.20;;;;;;5032779;28;20681;-77
2021/03/24 04:40:20;;;;;;;1.60;1.40;;;4.20;98.20;;;;;;5024285;28;20494;-77
2021/03/24 04:42:50;;;;;;;1.60;1.47;;;4.20;98.20;;;;;;5031761;28;20478;-77
2021/03/24 04:45:34;;;;;;;1.60;1.47;;;4.20;98.20;;;;;;5027401;28;21087;-77
2021/03/24 04:48:05;;;;;;;1.60;1.50;;;4.20;98.20;;;;;;5027295;28;20483;-77
2021/03/24 04:50:36;;;;;;;1.60;1.40;;;4.20;98.20;;;;;;5027299;28;20812;-77
2021/03/24 04:53:05;;;;;;;1.60;1.40;;;4.10;98.20;;;;;;5032749;28;20862;-76
2021/03/24 04:55:33;;;;;;;1.60;1.30;;;4.10;98.20;;;;;;5029436;28;20579;-74
2021/03/24 04:58:02;;;;;;;1.60;1.40;;;4.10;98.20;;;;;;5027788;28;20636;-76
2021/03/24 05:00:34;;;;;;;1.60;1.30;;;4.10;98.20;;;;;;5024690;28;20556;-75
2021/03/24 05:03:08;;;;;;;5.80;5.20;;;4.10;98.20;;;;;;5026528;28;20480;-76
2021/03/24 05:05:38;;;;;;;1.60;1.50;;;4.00;98.20;;;;;;5023391;28;20492;-75
2021/03/24 05:08:12;;;;;;;1.60;1.47;;;4.00;98.20;;;;;;5015851;28;20479;-76
2021/03/24 05:10:39;;;;;;;1.60;1.50;;;4.00;98.20;;;;;;5027668;28;20460;-76
2021/03/24 05:13:12;;;;;;;1.60;1.50;;;4.00;98.20;;;;;;5009636;28;20498;-75
2021/03/24 05:15:43;;;;;;;1.60;1.30;;;4.00;98.20;;;;;;5028209;28;20487;-75
2021/03/24 05:18:12;;;;;;;1.60;1.50;;;3.90;98.20;;;;;;5028644;28;20510;-76
2021/03/24 05:20:45;;;;;;;1.70;1.50;;;3.90;98.20;;;;;;5023575;28;20488;-76
2021/03/24 05:23:16;;;;;;;1.60;1.50;;;3.90;98.20;;;;;;5032530;28;20478;-76
2021/03/24 05:25:45;;;;;;;1.63;1.47;;;3.90;98.20;;;;;;5029327;28;20503;-75
2021/03/24 05:28:18;;;;;;;1.60;1.30;;;3.90;98.20;;;;;;5016136;28;20484;-76
2021/03/24 05:30:52;;;;;;;1.60;1.40;;;3.80;98.20;;;;;;5026305;28;20543;-77
2021/03/24 05:33:23;;;;;;;1.70;1.60;;;3.80;98.20;;;;;;5014356;28;20479;-76
2021/03/24 05:35:59;;;;;;;1.60;1.30;;;3.80;98.20;;;;;;5013905;28;20529;-77
2021/03/24 05:38:33;;;;;;;1.60;1.40;;;3.90;98.20;;;;;;5037210;28;20470;-76
2021/03/24 05:41:16;;;;;;;1.60;1.40;;;3.80;98.20;;;;;;5012323;28;20570;-76
2021/03/24 05:44:19;;;;;;;1.60;1.40;;;3.80;98.20;;;;;;5038085;28;20466;-76
2021/03/24 05:47:04;;;;;;;2.53;2.37;;;3.80;98.20;;;;;;5020691;28;20496;-76
2021/03/24 05:49:41;;;;;;;1.60;1.50;;;3.80;98.20;;;;;;5021452;28;20464;-76
2021/03/24 05:52:17;;;;;;;1.60;1.40;;;3.90;98.20;;;;;;5016934;28;20918;-76
2021/03/24 05:55:04;;;;;;;1.60;1.30;;;3.90;98.20;;;;;;5033103;28;20471;-76
2021/03/24 05:57:41;;;;;;;1.60;1.40;;;3.90;98.20;;;;;;5027702;28;20880;-75
2021/03/24 06:00:24;;;;;;;1.60;1.30;;;3.90;98.20;;;;;;5026370;28;20460;-76
2021/03/24 06:03:00;;;;;;;1.60;1.40;;;3.90;98.20;;;;;;5032950;28;20536;-77
2021/03/24 06:05:31;;;;;;;1.60;1.40;;;3.90;98.20;;;;;;5029809;28;20520;-77
2021/03/24 06:08:27;;;;;;;1.70;1.60;;;3.90;98.20;;;;;;5018662;28;21035;-77
2021/03/24 06:11:19;;;;;;;1.60;1.40;;;4.00;98.20;;;;;;5019887;28;20519;-76
2021/03/24 06:14:17;;;;;;;1.60;1.40;;;4.00;98.20;;;;;;5037700;28;20470;-76
2021/03/24 06:17:03;;;;;;;1.60;1.37;;;4.00;98.20;;;;;;5027039;28;20482;-76
2021/03/24 06:19:41;;;;;;;1.60;1.30;;;4.10;98.20;;;;;;5034857;28;20538;-75
2021/03/24 06:22:21;;;;;;;1.60;1.40;;;4.20;98.20;;;;;;5027004;28;20860;-75
2021/03/24 06:24:59;;;;;;;2.47;2.27;;;4.30;98.20;;;;;;5029562;28;20474;-76
2021/03/24 06:27:41;;;;;;;1.60;1.40;;;4.50;98.20;;;;;;5029077;28;20564;-78
2021/03/24 06:30:40;;;;;;;1.60;1.40;;;4.60;98.20;;;;;;5034258;28;20490;-77
2021/03/24 06:33:33;;;;;;;1.60;1.40;;;4.80;98.20;;;;;;5033245;28;20484;-78
2021/03/24 06:36:48;;;;;;;1.70;1.60;;;5.00;98.20;;;;;;5026915;28;20475;-78
2021/03/24 06:39:28;;;;;;;1.60;1.30;;;5.20;98.20;;;;;;5012071;28;20467;-78
2021/03/24 06:42:09;;;;;;;1.60;1.30;;;5.40;98.20;;;;;;5020865;28;21024;-78
2021/03/24 06:45:02;;;;;;;1.60;1.30;;;5.50;98.20;;;;;;5035044;28;20554;-78
2021/03/24 06:47:38;;;;;;;1.60;1.30;;;5.70;98.20;;;;;;5019490;28;20490;-79
2021/03/24 06:50:33;;;;;;;1.60;1.30;;;5.80;98.20;;;;;;5032938;28;20990;-79
2021/03/24 06:53:30;;;;;;;1.60;1.30;;;6.00;98.20;;;;;;5022194;28;20553;-80
2021/03/24 06:56:40;;;;;;;1.60;1.30;;;6.20;98.20;;;;;;5022335;28;20483;-79
2021/03/24 06:59:48;;;;;;;1.60;1.30;;;6.50;98.20;;;;;;4972321;28;20980;-77
2021/03/24 07:02:47;;;;;;;1.60;1.30;;;6.70;98.20;;;;;;5025638;28;20482;-78
2021/03/24 07:05:40;;;;;;;1.60;1.40;;;6.90;98.20;;;;;;5029598;28;20463;-80
2021/03/24 07:08:42;;;;;;;1.60;1.30;;;7.00;98.20;;;;;;5037644;28;20540;-78
2021/03/24 07:11:23;;;;;;;1.60;1.30;;;7.20;98.20;;;;;;5026188;28;21128;-79
2021/03/24 07:14:15;;;;;;;1.60;1.40;;;7.30;98.20;;;;;;5035884;28;20950;-79
2021/03/24 07:17:00;;;;;;;1.57;1.20;;;7.40;98.20;;;;;;5028865;28;20490;-78
2021/03/24 07:20:11;;;;;;;1.60;1.40;;;7.60;98.20;;;;;;5038051;28;20534;-79
2021/03/24 07:22:54;;;;;;;1.53;1.30;;;7.80;98.20;;;;;;5006941;28;20528;-79
2021/03/24 07:25:48;;;;;;;1.57;1.30;;;8.00;97.10;;;;;;5029526;28;20613;-79
2021/03/24 07:28:47;;;;;;;1.60;1.20;;;8.10;97.00;;;;;;5018300;28;20856;-79
2021/03/24 07:31:36;;;;;;;1.60;1.20;;;8.20;97.20;;;;;;5021085;28;20567;-79
2021/03/24 07:34:19;;;;;;;1.60;1.20;;;8.40;96.90;;;;;;5040391;28;20471;-79
2021/03/24 07:37:28;;;;;;;1.60;1.20;;;8.60;95.80;;;;;;5030232;28;20563;-79
2021/03/24 07:40:17;;;;;;;1.60;1.50;;;8.90;96.00;;;;;;5031366;28;20536;-79
2021/03/24 07:42:54;;;;;;;1.60;1.20;;;9.10;93.90;;;;;;5020302;28;20479;-79
2021/03/24 07:45:48;;;;;;;1.53;1.20;;;9.20;93.40;;;;;;5028535;28;20466;-79
2021/03/24 07:48:35;;;;;;;1.53;1.20;;;9.40;93.90;;;;;;5016404;28;20486;-79
2021/03/24 07:51:11;;;;;;;1.60;1.30;;;9.60;93.50;;;;;;5018722;28;20455;-78
2021/03/24 07:53:51;;;;;;;1.57;1.17;;;9.70;92.30;;;;;;5044233;28;20708;-78
2021/03/24 07:56:28;;;;;;;1.50;1.10;;;9.80;92.10;;;;;;5023544;28;20577;-78
2021/03/24 07:59:28;;;;;;;1.57;1.10;;;10.00;92.40;;;;;;5034553;28;20467;-81
2021/03/24 08:02:13;;;;;;;1.50;1.10;;;10.20;91.20;;;;;;5024754;28;20487;-80
2021/03/24 08:05:04;;;;;;;1.53;1.10;;;10.40;91.20;;;;;;5035533;28;20524;-79
2021/03/24 08:07:39;;;;;;;1.60;1.10;;;10.60;90.30;;;;;;5030532;28;20984;-79
2021/03/24 08:10:26;;;;;;;1.60;1.10;;;10.70;89.60;;;;;;5025310;28;20458;-80
2021/03/24 08:13:09;;;;;;;1.50;1.10;;;10.90;89.10;;;;;;5033840;28;20489;-79
2021/03/24 08:15:54;;;;;;;1.60;1.20;;;11.10;89.00;;;;;;5031169;28;20495;-79
2021/03/24 08:18:31;;;;;;;1.57;1.07;;;11.20;88.80;;;;;;5010536;28;20543;-79
2021/03/24 08:21:05;;;;;;;1.53;1.10;;;11.20;88.80;;;;;;5017933;28;20656;-76
2021/03/24 08:24:07;;;;;;;1.50;1.00;;;11.30;89.10;;;;;;5043967;28;20845;-78
2021/03/24 08:26:42;;;;;;;1.57;1.10;;;11.40;88.60;;;;;;5019103;28;20485;-78
2021/03/24 08:29:21;;;;;;;1.57;1.10;;;11.50;88.40;;;;;;5033818;28;20485;-77
2021/03/24 08:32:24;;;;;;;1.60;1.10;;;11.60;88.60;;;;;;5027376;28;20473;-77
2021/03/24 08:35:20;;;;;;;1.57;1.10;;;11.70;87.20;;;;;;5029775;28;21025;-78
2021/03/24 08:38:20;;;;;;;1.50;1.00;;;11.80;87.20;;;;;;5023253;28;20551;-77
2021/03/24 08:41:14;;;;;;;1.60;1.10;;;11.80;86.80;;;;;;5019286;28;20858;-78
2021/03/24 08:44:01;;;;;;;1.57;1.00;;;11.80;87.00;;;;;;5037650;28;21079;-77
2021/03/24 08:46:31;;;;;;;1.57;1.00;;;11.90;87.40;;;;;;5023530;28;20490;-78
2021/03/24 08:49:02;;;;;;;1.57;1.00;;;12.00;87.00;;;;;;5038938;28;20464;-78
2021/03/24 08:51:52;;;;;;;1.60;1.20;;;12.10;86.70;;;;;;5016428;28;20479;-77
2021/03/24 08:54:51;;;;;;;1.60;1.00;;;12.30;85.60;;;;;;5015570;28;20467;-77
2021/03/24 08:57:48;;;;;;;1.80;1.60;;;12.40;84.60;;;;;;5021111;28;20489;-77
2021/03/24 09:00:39;;;;;;;1.53;1.00;;;12.60;84.50;;;;;;5025782;28;20736;-76
2021/03/24 09:03:23;;;;;;;1.60;1.20;;;12.90;83.70;;;;;;5028880;28;20565;-76
2021/03/24 09:06:01;;;;;;;1.60;1.10;;;13.10;83.10;;;;;;5016985;28;20483;-76
2021/03/24 09:08:31;;;;;;;1.60;1.10;;;13.20;82.70;;;;;;5038335;28;20546;-76
2021/03/24 09:11:19;;;;;;;1.50;1.00;;;13.40;82.70;;;;;;5015846;28;20463;-77
2021/03/24 09:13:56;;;;;;;1.50;1.00;;;13.60;82.00;;;;;;5031130;28;20467;-77
2021/03/24 09:16:48;;;;;;;1.60;1.07;;;13.70;82.00;;;;;;5018537;28;20540;-77
2021/03/24 09:19:31;;;;;;;1.57;1.00;;;13.70;81.80;;;;;;5033233;28;20766;-75
2021/03/24 09:22:06;;;;;;;1.57;1.00;;;13.80;81.30;;;;;;5021390;28;21067;-77
2021/03/24 09:25:02;;;;;;;1.57;1.00;;;13.90;80.80;;;;;;5031438;28;20467;-75
2021/03/24 09:27:53;;;;;;;1.50;1.00;;;13.90;80.80;;;;;;5023342;28;20505;-77
2021/03/24 09:30:55;;;;;;;1.50;1.00;;;14.00;80.70;;;;;;5021024;28;20895;-78
2021/03/24 09:33:47;;;;;;;1.60;1.00;;;14.10;80.90;;;;;;5012623;28;20577;-76
2021/03/24 09:36:43;;;;;;;1.50;1.00;;;14.40;80.60;;;;;;5017217;28;20796;-75
2021/03/24 09:39:20;;;;;;;1.53;1.00;;;14.60;79.40;;;;;;5033234;28;20483;-75
2021/03/24 09:41:54;;;;;;;1.53;1.00;;;14.60;79.30;;;;;;5023203;28;20954;-77
2021/03/24 09:44:27;;;;;;;1.50;0.90;;;14.70;79.90;;;;;;5033010;28;20566;-77
2021/03/24 09:46:56;;;;;;;4.27;3.00;;;14.70;79.10;;;;;;5019054;28;20565;-77
2021/03/24 09:49:29;;;;;;;1.53;1.00;;;15.00;79.90;;;;;;5029322;28;20486;-76
2021/03/24 09:52:19;;;;;;;1.53;1.00;;;15.20;79.10;;;;;;5014525;28;20481;-75
2021/03/24 09:55:14;;;;;;;1.50;0.90;;;15.50;78.00;;;;;;5027425;28;20558;-76
2021/03/24 09:58:28;;;;;;;1.57;1.00;;;15.40;76.70;;;;;;5021985;28;20891;-76
2021/03/24 10:01:15;;;;;;;1.53;1.00;;;15.50;77.60;;;;;;5010554;28;20860;-78
2021/03/24 10:03:49;;;;;;;1.53;1.00;;;15.70;76.90;;;;;;5016665;28;21087;-77
2021/03/24 10:06:24;;;;;;;1.53;1.00;;;15.70;77.90;;;;;;5014419;28;20493;-77
2021/03/24 10:09:03;;;;;;;1.50;1.00;;;15.70;77.50;;;;;;5036798;28;20490;-78
2021/03/24 10:11:38;;;;;;;1.50;1.00;;;15.90;77.60;;;;;;5018218;28;21125;-78
2021/03/24 10:14:10;;;;;;;1.50;1.00;;;16.10;76.40;;;;;;5027803;28;20467;-76
2021/03/24 10:16:43;;;;;;;1.57;1.00;;;16.20;76.60;;;;;;5020335;28;20981;-76
2021/03/24 10:19:18;;;;;;;1.57;1.00;;;16.40;76.80;;;;;;5033986;28;20494;-78
2021/03/24 10:21:49;;;;;;;1.53;1.00;;;16.60;75.70;;;;;;5020825;28;20493;-76
2021/03/24 10:24:19;;;;;;;1.50;0.97;;;16.50;74.80;;;;;;5032268;28;20475;-76
2021/03/24 10:26:54;;;;;;;1.50;0.90;;;16.40;75.30;;;;;;5022990;28;20494;-78
2021/03/24 10:29:27;;;;;;;1.60;1.10;;;16.50;75.30;;;;;;5025969;28;21056;-77
2021/03/24 10:31:58;;;;;;;1.53;1.00;;;16.50;75.40;;;;;;5012044;28;20482;-77
2021/03/24 10:34:33;;;;;;;1.50;0.93;;;16.60;75.40;;;;;;5028543;28;20466;-75
2021/03/24 10:37:09;;;;;;;1.53;0.90;;;16.60;74.40;;;;;;5021106;28;20561;-78
2021/03/24 10:39:40;;;;;;;1.57;1.00;;;16.70;76.20;;;;;;5029403;28;20487;-77
2021/03/24 10:42:18;;;;;;;1.60;1.10;;;17.00;76.00;;;;;;5024065;28;20530;-78
2021/03/24 10:44:51;;;;;;;1.50;1.00;;;17.30;74.60;;;;;;5032297;28;20532;-76
2021/03/24 10:47:28;;;;;;;1.53;1.00;;;17.50;74.80;;;;;;5007714;28;20988;-77
2021/03/24 10:50:13;;;;;;;1.60;1.20;;;17.70;74.20;;;;;;5027598;28;20619;-77
2021/03/24 10:52:43;;;;;;;1.53;0.90;;;17.90;73.20;;;;;;5020195;28;21020;-77
2021/03/24 10:55:17;;;;;;;1.53;1.00;;;18.00;72.40;;;;;;5023144;28;20463;-79
2021/03/24 10:57:58;;;;;;;1.50;0.90;;;17.90;72.10;;;;;;5016975;28;20571;-79
2021/03/24 11:00:31;;;;;;;1.50;0.90;;;17.90;73.50;;;;;;5026349;28;20463;-79
2021/03/24 11:03:12;;;;;;;1.60;1.10;;;18.00;71.90;;;;;;5031542;28;20486;-79
2021/03/24 11:05:43;;;;;;;1.60;1.10;;;17.90;71.60;;;;;;5025240;28;20483;-79
2021/03/24 11:08:21;;;;;;;1.53;0.90;;;17.90;73.30;;;;;;5032472;28;21804;-77
2021/03/24 11:10:53;;;;;;;1.60;0.90;;;17.90;71.60;;;;;;5016620;28;20550;-77
2021/03/24 11:13:29;;;;;;;1.57;1.00;;;17.80;72.50;;;;;;5030408;28;20467;-77
2021/03/24 11:16:06;;;;;;;1.60;1.10;;;17.90;73.00;;;;;;5014806;28;20520;-77
2021/03/24 11:18:38;;;;;;;1.53;0.90;;;18.10;73.40;;;;;;5037327;28;20528;-77
2021/03/24 11:21:20;;;;;;;1.50;0.90;;;18.40;71.60;;;;;;5015090;28;20550;-78
2021/03/24 11:23:51;;;;;;;1.57;1.00;;;18.50;70.80;;;;;;5037803;28;20692;-78
2021/03/24 11:26:52;;;;;;;1.50;0.90;;;18.60;71.20;;;;;;5014426;28;20947;-78
2021/03/24 11:29:22;;;;;;;1.53;1.00;;;18.70;70.60;;;;;;5016498;28;20565;-78
2021/03/24 11:31:57;;;;;;;1.57;1.00;;;18.70;69.90;;;;;;5015850;28;20482;-77
2021/03/24 11:34:31;;;;;;;1.50;0.90;;;18.70;70.10;;;;;;5032520;28;20470;-78
2021/03/24 11:37:02;;;;;;;1.50;0.90;;;18.70;69.90;;;;;;5020068;28;20486;-78
2021/03/24 11:39:33;;;;;;;1.53;0.90;;;18.80;69.60;;;;;;5024263;28;20510;-78
2021/03/24 11:42:11;;;;;;;1.57;0.90;;;18.80;69.70;;;;;;5015283;28;20494;-78
2021/03/24 11:44:38;;;;;;;1.50;0.90;;;18.80;69.70;;;;;;5026016;28;20551;-77
2021/03/24 11:47:13;;;;;;;1.60;1.00;;;18.80;69.20;;;;;;5012694;28;20504;-78
2021/03/24 11:49:49;;;;;;;1.50;0.90;;;18.80;69.70;;;;;;5021653;28;20758;-78
2021/03/24 11:52:29;;;;;;;1.57;1.10;;;18.90;68.80;;;;;;5024570;28;20581;-78
2021/03/24 11:55:12;;;;;;;1.50;0.90;;;19.00;70.30;;;;;;5024516;28;20509;-78
2021/03/24 11:57:57;;;;;;;1.53;0.90;;;19.10;69.40;;;;;;5027134;28;20581;-78
2021/03/24 12:00:33;;;;;;;1.53;0.90;;;19.20;70.00;;;;;;5025438;28;20489;-77
2021/03/24 12:03:11;;;;;;;1.50;1.00;;;19.30;68.80;;;;;;5031079;28;20491;-78
2021/03/24 12:05:41;;;;;;;1.57;0.90;;;19.40;69.80;;;;;;5021229;28;20513;-77
2021/03/24 12:08:25;;;;;;;1.50;0.90;;;19.50;68.30;;;;;;5030409;28;20476;-81
2021/03/24 12:11:04;;;;;;;1.87;1.67;;;19.50;67.50;;;;;;5019125;28;20455;-76
2021/03/24 12:13:33;;;;;;;1.53;1.00;;;19.40;68.80;;;;;;5037482;28;20561;-78
2021/03/24 12:16:03;;;;;;;1.60;1.10;;;19.40;69.20;;;;;;5018704;28;20665;-79
2021/03/24 12:18:46;;;;;;;1.57;0.90;;;19.60;68.30;;;;;;5032900;28;20466;-78
2021/03/24 12:21:21;;;;;;;1.53;0.97;;;19.70;68.00;;;;;;5016481;28;20495;-77
2021/03/24 12:26:36;;;;;;;1.50;0.90;;;19.50;68.60;;;;;;5020127;28;20485;-78
2021/03/24 12:29:05;;;;;;;1.50;0.90;;;19.50;68.70;;;;;;5036133;28;20499;-76
2021/03/24 12:31:46;;;;;;;1.53;0.90;;;19.60;67.20;;;;;;5020753;28;20692;-76
2021/03/24 12:34:18;;;;;;;1.50;0.90;;;19.40;68.00;;;;;;5035284;28;20504;-78
2021/03/24 12:36:55;;;;;;;1.50;0.90;;;19.60;68.20;;;;;;5016178;28;20487;-79
2021/03/24 12:39:30;;;;;;;1.60;1.00;;;19.60;69.20;;;;;;5022463;28;20467;-78
2021/03/24 12:42:09;;;;;;;1.53;0.90;;;19.90;68.60;;;;;;5020285;28;20521;-77
2021/03/24 12:44:39;;;;;;;1.50;0.97;;;20.10;67.90;;;;;;5030620;28;20470;-78
2021/03/24 12:47:31;;;;;;;1.57;1.00;;;20.10;67.30;;;;;;5026058;28;20529;-76
2021/03/24 12:50:27;;;;;;;1.83;1.37;;;20.30;67.70;;;;;;5027397;28;20467;-78
2021/03/24 12:53:05;;;;;;;1.57;0.93;;;20.40;66.00;;;;;;5033739;28;20884;-78
2021/03/24 12:55:35;;;;;;;1.57;0.90;;;20.50;66.00;;;;;;5029948;28;20513;-76
2021/03/24 12:58:24;;;;;;;1.53;0.90;;;20.50;65.10;;;;;;5023367;28;20540;-79
2021/03/24 13:01:15;;;;;;;;;;;;;;;;;;;;;
2021/03/24 13:04:00;;;;;;;1.50;0.90;;;20.20;65.60;;;;;;5034916;28;20483;-76
2021/03/24 13:06:59;;;;;;;1.50;1.00;;;20.30;67.60;;;;;;5015871;28;20582;-78
2021/03/24 13:09:39;;;;;;;1.50;0.90;;;20.50;65.70;;;;;;5029970;28;20474;-76
2021/03/24 13:12:16;;;;;;;1.93;1.73;;;20.40;66.20;;;;;;5025636;28;20773;-77
2021/03/24 13:15:05;;;;;;;1.57;0.97;;;20.60;66.60;;;;;;5027902;28;21029;-77
2021/03/24 13:17:42;;;;;;;1.53;0.90;;;20.70;64.80;;;;;;5031191;28;20754;-80
2021/03/24 13:20:20;;;;;;;2.47;2.17;;;20.90;65.70;;;;;;5027799;28;20463;-79
2021/03/24 13:22:59;;;;;;;1.50;1.00;;;21.00;66.30;;;;;;5030835;28;20581;-79
2021/03/24 13:25:35;;;;;;;1.53;0.90;;;21.10;63.60;;;;;;5025779;28;20969;-80
2021/03/24 13:28:31;;;;;;;1.60;1.00;;;21.20;65.90;;;;;;5030111;28;20478;-79
2021/03/24 13:31:06;;;;;;;1.50;0.90;;;21.20;64.30;;;;;;5018792;28;21005;-79
2021/03/24 13:33:53;;;;;;;1.50;0.90;;;21.20;63.20;;;;;;5040112;28;20962;-80
2021/03/24 13:36:25;;;;;;;1.50;0.90;;;21.20;63.80;;;;;;5020418;28;20490;-80
2021/03/24 13:39:01;;;;;;;1.50;0.90;;;21.10;63.70;;;;;;5030811;28;20483;-80
2021/03/24 13:41:28;;;;;;;1.50;0.90;;;21.20;65.20;;;;;;5017933;28;20924;-79
2021/03/24 13:43:59;;;;;;;1.50;1.00;;;21.20;65.70;;;;;;5032491;28;20466;-79
2021/03/24 13:46:30;;;;;;;2.07;1.67;;;21.20;64.60;;;;;;5015557;28;20498;-80